ANZ377 NZWN-NZCH
Flight info
| Callsign | ANZ377 |
|---|---|
| Flight time | N/A |
| Altitude | 24000 |
| Route | SABDA Y622 MESIX |
| Aircraft | A320/M-SDE3FGHIRWY/LB1 |
Departure
| Time | 2026-05-05 06:46 |
|---|---|
| Airport | Wellington International Airport (NZWN) |
Arrival
| Time | N/A |
|---|---|
| Airport | Christchurch International Airport (NZCH) |
| Time | Latitude | Longitude | Altitude | Speed | Heading |
|---|---|---|---|---|---|
| 2026-05-05 06:05 | -41.33062 | 174.80991 | 27 ft | 0 kts | 10° |
| 2026-05-05 06:37 | -41.33066 | 174.80990 | 26 ft | 3 kts | 10° |
| 2026-05-05 06:37 | -41.33088 | 174.80986 | 26 ft | 3 kts | 4° |
| 2026-05-05 06:38 | -41.33110 | 174.80984 | 26 ft | 3 kts | 3° |
| 2026-05-05 06:38 | -41.33129 | 174.80983 | 26 ft | 3 kts | 3° |
| 2026-05-05 06:38 | -41.33152 | 174.80981 | 26 ft | 3 kts | 3° |
| 2026-05-05 06:38 | -41.33174 | 174.80980 | 26 ft | 3 kts | 3° |
| 2026-05-05 06:39 | -41.33197 | 174.80978 | 26 ft | 2 kts | 3° |
| 2026-05-05 06:39 | -41.33199 | 174.80978 | 26 ft | 0 kts | 3° |
| 2026-05-05 06:42 | -41.33193 | 174.80978 | 26 ft | 3 kts | 3° |
| 2026-05-05 06:43 | -41.33168 | 174.80957 | 26 ft | 6 kts | 296° |
| 2026-05-05 06:43 | -41.33159 | 174.80892 | 26 ft | 8 kts | 273° |
| 2026-05-05 06:43 | -41.33164 | 174.80806 | 26 ft | 10 kts | 238° |
| 2026-05-05 06:43 | -41.33239 | 174.80781 | 26 ft | 13 kts | 182° |
| 2026-05-05 06:44 | -41.33337 | 174.80776 | 26 ft | 15 kts | 182° |
| 2026-05-05 06:44 | -41.33446 | 174.80769 | 26 ft | 11 kts | 183° |
| 2026-05-05 06:44 | -41.33507 | 174.80764 | 26 ft | 10 kts | 185° |
| 2026-05-05 06:44 | -41.33568 | 174.80705 | 26 ft | 13 kts | 246° |
| 2026-05-05 06:45 | -41.33514 | 174.80635 | 26 ft | 14 kts | 1° |
| 2026-05-05 06:45 | -41.33382 | 174.80644 | 26 ft | 38 kts | 3° |
| 2026-05-05 06:45 | -41.32857 | 174.80679 | 27 ft | 109 kts | 3° |
| 2026-05-05 06:45 | -41.31959 | 174.80733 | 290 ft | 139 kts | 4° |
| 2026-05-05 06:46 | -41.30956 | 174.80779 | 924 ft | 145 kts | 4° |
| 2026-05-05 06:46 | -41.29957 | 174.80837 | 1753 ft | 140 kts | 359° |
| 2026-05-05 06:46 | -41.28936 | 174.80910 | 2328 ft | 157 kts | 358° |
| 2026-05-05 06:46 | -41.27763 | 174.80987 | 2724 ft | 180 kts | 357° |
| 2026-05-05 06:47 | -41.26460 | 174.81014 | 3147 ft | 192 kts | 350° |
| 2026-05-05 06:47 | -41.25161 | 174.80641 | 3886 ft | 192 kts | 338° |
| 2026-05-05 06:47 | -41.23925 | 174.79939 | 4595 ft | 195 kts | 336° |
| 2026-05-05 06:47 | -41.22634 | 174.79315 | 5285 ft | 202 kts | 342° |
| 2026-05-05 06:48 | -41.21254 | 174.78807 | 5933 ft | 210 kts | 345° |
| 2026-05-05 06:48 | -41.19837 | 174.78324 | 6656 ft | 216 kts | 345° |
| 2026-05-05 06:48 | -41.18373 | 174.77820 | 7379 ft | 219 kts | 345° |
| 2026-05-05 06:48 | -41.16885 | 174.77308 | 8117 ft | 223 kts | 345° |
| 2026-05-05 06:49 | -41.15437 | 174.76553 | 8840 ft | 227 kts | 324° |
| 2026-05-05 06:49 | -41.14412 | 174.74947 | 9562 ft | 234 kts | 296° |
| 2026-05-05 06:49 | -41.14133 | 174.72796 | 10249 ft | 244 kts | 264° |
| 2026-05-05 06:49 | -41.14777 | 174.70691 | 10882 ft | 254 kts | 232° |
| 2026-05-05 06:50 | -41.16224 | 174.69323 | 11523 ft | 262 kts | 201° |
| 2026-05-05 06:50 | -41.17990 | 174.68702 | 12230 ft | 265 kts | 186° |
| 2026-05-05 06:50 | -41.19879 | 174.68755 | 12656 ft | 282 kts | 172° |
| 2026-05-05 06:50 | -41.21908 | 174.69117 | 12893 ft | 306 kts | 172° |
| 2026-05-05 06:51 | -41.24095 | 174.69503 | 13094 ft | 329 kts | 172° |
| 2026-05-05 06:51 | -41.26443 | 174.69911 | 13255 ft | 352 kts | 172° |
| 2026-05-05 06:51 | -41.28914 | 174.70333 | 13402 ft | 373 kts | 173° |
| 2026-05-05 06:51 | -41.31524 | 174.70773 | 13861 ft | 383 kts | 173° |